createdAt,value
2022-10-16T00:00:55.793Z,1.70
2022-10-16T00:03:33.644Z,2.22
2022-10-16T00:06:20.684Z,1.70
2022-10-16T00:08:56.866Z,2.00
2022-10-16T00:11:39.015Z,3.65
2022-10-16T00:14:22.947Z,3.40
2022-10-16T00:16:54.904Z,3.00
2022-10-16T00:19:23.720Z,3.35
2022-10-16T00:21:58.651Z,3.72
2022-10-16T00:24:27.553Z,3.30
2022-10-16T00:26:55.524Z,4.00
2022-10-16T00:29:34.479Z,2.92
2022-10-16T00:32:02.346Z,3.38
2022-10-16T00:34:42.604Z,2.80
2022-10-16T00:37:12.398Z,2.58
2022-10-16T00:40:06.636Z,2.70
2022-10-16T00:42:46.757Z,2.55
2022-10-16T00:45:14.742Z,2.55
2022-10-16T00:47:47.345Z,3.20
2022-10-16T00:50:33.695Z,3.50
2022-10-16T00:53:03.069Z,2.80
2022-10-16T00:55:32.478Z,3.58
2022-10-16T00:58:00.453Z,3.00
2022-10-16T01:00:33.284Z,2.88
2022-10-16T01:03:02.557Z,3.42
2022-10-16T01:05:49.884Z,1.98
2022-10-16T01:08:21.851Z,2.40
2022-10-16T01:11:12.973Z,2.70
2022-10-16T01:13:48.895Z,2.28
2022-10-16T01:16:35.874Z,2.05
2022-10-16T01:19:51.075Z,2.30
2022-10-16T01:22:28.120Z,2.72
2022-10-16T01:25:07.996Z,2.88
2022-10-16T01:27:38.470Z,2.00
2022-10-16T01:30:16.583Z,2.20
2022-10-16T01:36:08.613Z,2.20
2022-10-16T01:38:46.989Z,2.38
2022-10-16T01:44:30.659Z,2.05
2022-10-16T01:47:06.863Z,2.22
2022-10-16T01:49:37.917Z,2.00
2022-10-16T01:52:08.921Z,2.10
2022-10-16T01:54:41.314Z,2.22
2022-10-16T01:57:24.561Z,2.22
2022-10-16T02:00:08.876Z,2.63
2022-10-16T02:02:48.143Z,2.35
2022-10-16T02:05:24.386Z,2.28
2022-10-16T02:08:14.694Z,2.00
2022-10-16T02:10:46.836Z,1.92
2022-10-16T02:13:19.084Z,1.52
2022-10-16T02:15:54.538Z,1.63
2022-10-16T02:18:22.914Z,1.45
2022-10-16T02:20:53.203Z,1.50
2022-10-16T02:23:25.070Z,1.92
2022-10-16T02:25:57.219Z,1.95
2022-10-16T02:28:30.258Z,1.50
2022-10-16T02:31:02.983Z,2.08
2022-10-16T02:33:31.435Z,1.55
2022-10-16T02:36:00.853Z,1.40
2022-10-16T02:38:32.552Z,1.13
2022-10-16T02:41:03.633Z,1.20
2022-10-16T02:43:36.477Z,1.40
2022-10-16T02:46:10.609Z,1.35
2022-10-16T02:48:51.017Z,1.40
2022-10-16T02:51:37.737Z,1.80
2022-10-16T02:54:11.023Z,1.73
2022-10-16T02:57:22.429Z,1.55
2022-10-16T03:37:38.980Z,4.38
2022-10-16T03:46:50.407Z,4.75
2022-10-16T03:49:26.828Z,3.72
2022-10-16T03:52:02.165Z,1.85
2022-10-16T03:54:33.466Z,1.40
2022-10-16T03:57:01.489Z,1.10
2022-10-16T03:59:30.961Z,1.48
2022-10-16T04:02:05.312Z,1.30
2022-10-16T04:04:43.498Z,1.60
2022-10-16T04:07:18.561Z,1.40
2022-10-16T04:09:46.673Z,1.42
2022-10-16T04:12:14.765Z,1.92
2022-10-16T04:14:51.887Z,1.73
2022-10-16T04:17:32.736Z,2.30
2022-10-16T04:20:03.091Z,2.70
2022-10-16T04:22:37.862Z,2.55
2022-10-16T04:25:16.852Z,1.75
2022-10-16T04:28:13.174Z,1.48
2022-10-16T04:30:48.274Z,1.60
2022-10-16T04:33:20.360Z,1.85
2022-10-16T04:35:48.218Z,4.60
2022-10-16T04:38:16.873Z,8.13
2022-10-16T04:40:47.068Z,2.92
2022-10-16T04:43:24.105Z,4.70
2022-10-16T04:45:56.996Z,2.70
2022-10-16T04:48:24.934Z,2.70
2022-10-16T04:51:09.212Z,2.80
2022-10-16T04:53:39.308Z,2.70
2022-10-16T04:56:09.586Z,3.72
2022-10-16T04:58:37.393Z,12.95
2022-10-16T05:01:16.021Z,12.27
2022-10-16T05:03:50.135Z,7.43
2022-10-16T05:06:31.182Z,2.70
2022-10-16T05:08:59.173Z,1.85
2022-10-16T05:11:28.611Z,1.83
2022-10-16T05:14:04.042Z,2.75
2022-10-16T05:16:38.274Z,3.50
2022-10-16T05:19:29.321Z,3.10
2022-10-16T05:22:07.437Z,3.17
2022-10-16T05:24:35.474Z,3.20
2022-10-16T05:27:12.715Z,2.30
2022-10-16T05:29:49.383Z,2.95
2022-10-16T05:32:28.140Z,2.53
2022-10-16T05:35:08.682Z,2.35
2022-10-16T05:37:42.523Z,2.25
2022-10-16T05:40:23.690Z,8.93
2022-10-16T05:42:52.125Z,3.75
2022-10-16T05:45:23.202Z,2.88
2022-10-16T05:47:56.625Z,5.35
2022-10-16T05:50:26.925Z,2.40
2022-10-16T05:52:56.326Z,3.53
2022-10-16T05:55:25.267Z,4.13
2022-10-16T05:57:58.583Z,1.80
2022-10-16T06:00:28.874Z,2.15
2022-10-16T06:02:57.971Z,2.85
2022-10-16T06:05:28.208Z,2.75
2022-10-16T06:07:58.652Z,2.10
2022-10-16T06:10:27.316Z,2.70
2022-10-16T06:12:55.571Z,2.15
2022-10-16T06:15:29.801Z,1.60
2022-10-16T06:17:59.982Z,1.88
2022-10-16T06:20:28.722Z,3.13
2022-10-16T06:23:09.492Z,3.38
2022-10-16T06:25:39.446Z,2.30
2022-10-16T06:28:20.641Z,1.70
2022-10-16T06:30:56.847Z,1.75
2022-10-16T06:33:25.025Z,1.65
2022-10-16T06:35:55.116Z,2.60
2022-10-16T06:38:25.087Z,3.33
2022-10-16T06:41:11.747Z,4.05
2022-10-16T06:43:39.846Z,2.97
2022-10-16T06:46:10.243Z,2.85
2022-10-16T06:48:48.688Z,3.30
2022-10-16T06:51:19.121Z,3.50
2022-10-16T06:54:03.432Z,4.30
2022-10-16T06:56:35.600Z,4.03
2022-10-16T06:59:07.235Z,3.90
2022-10-16T07:01:35.912Z,3.75
2022-10-16T07:04:08.424Z,3.80
2022-10-16T07:06:38.681Z,3.00
2022-10-16T07:09:08.443Z,2.95
2022-10-16T07:11:37.191Z,3.55
2022-10-16T07:14:16.913Z,3.25
2022-10-16T07:16:45.186Z,2.80
2022-10-16T07:19:17.759Z,3.67
2022-10-16T07:21:47.605Z,3.00
2022-10-16T07:24:18.752Z,2.83
2022-10-16T07:26:54.242Z,3.67
2022-10-16T07:29:24.080Z,3.35
2022-10-16T07:31:57.160Z,3.42
2022-10-16T07:34:33.193Z,2.88
2022-10-16T07:37:02.069Z,3.38
2022-10-16T07:39:33.898Z,3.03
2022-10-16T07:42:08.071Z,3.08
2022-10-16T07:44:45.953Z,2.67
2022-10-16T07:47:18.249Z,3.10
2022-10-16T07:49:47.342Z,3.38
2022-10-16T07:52:20.471Z,5.20
2022-10-16T07:54:50.442Z,3.35
2022-10-16T07:57:22.781Z,3.00
2022-10-16T07:59:51.771Z,2.67
2022-10-16T08:02:21.944Z,2.85
2022-10-16T08:04:50.021Z,4.18
2022-10-16T08:07:28.008Z,4.15
2022-10-16T08:10:01.199Z,3.83
2022-10-16T08:12:31.140Z,3.15
2022-10-16T08:15:10.068Z,3.55
2022-10-16T08:17:57.050Z,3.58
2022-10-16T08:20:25.199Z,3.42
2022-10-16T08:22:53.251Z,3.28
2022-10-16T08:25:21.137Z,3.15
2022-10-16T08:27:53.303Z,2.83
2022-10-16T08:30:25.483Z,3.05
2022-10-16T08:32:53.466Z,2.92
2022-10-16T08:35:22.562Z,3.28
2022-10-16T08:37:53.046Z,3.08
2022-10-16T08:40:28.742Z,2.93
2022-10-16T08:43:16.049Z,3.30
2022-10-16T08:45:46.860Z,2.88
2022-10-16T08:48:37.842Z,2.60
2022-10-16T08:51:07.001Z,2.55
2022-10-16T08:53:56.046Z,2.35
2022-10-16T08:56:32.746Z,2.40
2022-10-16T08:59:03.147Z,2.33
2022-10-16T09:01:43.866Z,2.50
2022-10-16T09:04:31.041Z,2.42
2022-10-16T09:07:20.906Z,2.30
2022-10-16T09:10:08.938Z,2.30
2022-10-16T09:12:50.781Z,2.53
2022-10-16T09:15:25.164Z,2.70
2022-10-16T09:17:55.049Z,2.33
2022-10-16T09:20:33.360Z,2.38
2022-10-16T09:23:21.440Z,1.80
2022-10-16T09:25:58.077Z,2.05
2022-10-16T09:28:30.406Z,2.50
2022-10-16T09:30:59.715Z,2.83
2022-10-16T09:33:38.991Z,2.20
2022-10-16T09:36:09.453Z,2.33
2022-10-16T09:38:38.826Z,2.27
2022-10-16T09:41:16.147Z,2.53
2022-10-16T09:44:03.112Z,2.28
2022-10-16T09:46:42.600Z,4.25
2022-10-16T09:49:38.339Z,2.38
2022-10-16T09:52:15.953Z,2.50
2022-10-16T09:55:06.527Z,2.20
2022-10-16T09:57:45.745Z,2.03
2022-10-16T10:00:23.757Z,2.33
2022-10-16T10:03:12.861Z,2.58
2022-10-16T10:05:41.395Z,2.50
2022-10-16T10:08:17.948Z,2.67
2022-10-16T10:10:46.890Z,2.67
2022-10-16T10:13:32.889Z,2.50
2022-10-16T10:16:02.797Z,2.30
2022-10-16T10:18:34.246Z,2.70
2022-10-16T10:24:15.930Z,2.67
2022-10-16T10:27:05.218Z,2.40
2022-10-16T10:29:58.216Z,2.13
2022-10-16T10:32:48.999Z,3.00
2022-10-16T10:35:40.162Z,2.50
2022-10-16T10:38:30.396Z,2.97
2022-10-16T10:41:05.185Z,2.22
2022-10-16T10:43:55.873Z,2.40
2022-10-16T10:46:47.613Z,2.38
2022-10-16T10:49:35.747Z,2.88
2022-10-16T10:52:29.447Z,2.17
2022-10-16T10:55:20.447Z,2.58
2022-10-16T10:58:12.158Z,2.63
2022-10-16T11:01:12.683Z,2.38
2022-10-16T11:03:47.742Z,2.47
2022-10-16T11:06:27.386Z,2.92
2022-10-16T11:09:04.383Z,3.33
2022-10-16T11:11:37.565Z,2.63
2022-10-16T11:14:14.327Z,3.25
2022-10-16T11:16:48.206Z,2.10
2022-10-16T11:19:50.406Z,2.40
2022-10-16T11:22:38.397Z,2.65
2022-10-16T11:25:20.799Z,2.38
2022-10-16T11:27:59.144Z,2.67
2022-10-16T11:30:29.045Z,2.35
2022-10-16T11:33:12.174Z,2.90
2022-10-16T11:35:59.864Z,2.35
2022-10-16T11:38:56.822Z,2.13
2022-10-16T11:41:44.614Z,2.20
2022-10-16T11:44:51.694Z,2.53
2022-10-16T11:47:58.652Z,2.95
2022-10-16T11:50:34.207Z,2.58
2022-10-16T11:53:18.226Z,2.58
2022-10-16T11:55:54.584Z,2.25
2022-10-16T11:59:09.152Z,2.55
2022-10-16T12:01:50.130Z,2.42
2022-10-16T12:04:31.233Z,2.47
2022-10-16T12:09:41.759Z,2.97
2022-10-16T12:12:31.471Z,2.63
2022-10-16T12:15:19.633Z,2.42
2022-10-16T12:18:03.631Z,1.98
2022-10-16T12:20:39.633Z,2.13
2022-10-16T12:23:09.620Z,2.45
2022-10-16T12:25:48.737Z,2.42
2022-10-16T12:28:30.183Z,2.30
2022-10-16T12:31:03.145Z,1.90
2022-10-16T12:33:42.480Z,1.98
2022-10-16T12:36:20.986Z,2.50
2022-10-16T12:39:07.347Z,2.25
2022-10-16T12:41:42.194Z,2.00
2022-10-16T12:44:39.148Z,2.00
2022-10-16T12:47:33.447Z,1.73
2022-10-16T12:50:05.468Z,2.17
2022-10-16T12:52:57.447Z,2.10
2022-10-16T12:55:29.698Z,1.77
2022-10-16T12:58:25.604Z,1.63
2022-10-16T13:01:12.874Z,1.92
2022-10-16T13:03:48.740Z,2.10
2022-10-16T13:06:22.315Z,1.88
2022-10-16T13:09:25.277Z,2.20
2022-10-16T13:12:14.796Z,1.90
2022-10-16T13:15:17.030Z,2.08
2022-10-16T13:18:07.810Z,1.85
2022-10-16T13:20:38.331Z,2.00
2022-10-16T13:23:44.299Z,1.88
2022-10-16T13:26:39.839Z,2.00
2022-10-16T13:29:20.913Z,1.98
2022-10-16T13:34:34.091Z,2.20
2022-10-16T13:37:02.481Z,2.10
2022-10-16T13:39:32.314Z,1.77
2022-10-16T13:42:19.062Z,1.95
2022-10-16T13:45:09.156Z,1.98
2022-10-16T13:47:44.397Z,1.70
2022-10-16T13:50:19.467Z,2.00
2022-10-16T13:53:17.548Z,1.80
2022-10-16T13:55:50.689Z,1.90
2022-10-16T13:58:30.678Z,2.25
2022-10-16T14:01:01.388Z,2.10
2022-10-16T14:03:31.890Z,2.05
2022-10-16T14:06:04.172Z,1.75
2022-10-16T14:08:45.765Z,1.77
2022-10-16T14:11:31.982Z,1.98
2022-10-16T14:14:17.842Z,2.00
2022-10-16T14:16:53.583Z,1.98
2022-10-16T14:19:25.049Z,1.83
2022-10-16T14:21:55.128Z,1.65
2022-10-16T14:24:32.573Z,1.70
2022-10-16T14:27:25.582Z,2.00
2022-10-16T14:30:22.763Z,1.90
2022-10-16T14:32:58.449Z,1.77
2022-10-16T14:35:27.734Z,1.70
2022-10-16T14:38:03.942Z,1.65
2022-10-16T14:40:51.091Z,2.05
2022-10-16T14:43:40.999Z,2.22
2022-10-16T14:46:16.379Z,1.65
2022-10-16T14:48:46.032Z,2.08
2022-10-16T14:51:21.435Z,2.25
2022-10-16T14:53:59.162Z,2.63
2022-10-16T14:56:53.782Z,2.25
2022-10-16T14:59:47.562Z,2.28
2022-10-16T15:02:27.306Z,9.60
2022-10-16T15:05:14.699Z,14.90
2022-10-16T15:08:00.106Z,2.90
2022-10-16T15:10:31.729Z,5.38
2022-10-16T15:13:14.182Z,4.93
2022-10-16T15:15:45.202Z,3.13
2022-10-16T15:20:54.799Z,2.47
2022-10-16T15:23:23.737Z,1.85
2022-10-16T15:25:57.987Z,1.52
2022-10-16T15:28:38.421Z,1.67
2022-10-16T15:31:21.917Z,1.60
2022-10-16T15:34:00.460Z,1.67
2022-10-16T15:36:31.849Z,1.63
2022-10-16T15:38:59.892Z,1.80
2022-10-16T15:41:35.896Z,1.75
2022-10-16T15:44:17.609Z,2.03
2022-10-16T15:46:59.224Z,1.75
2022-10-16T15:49:29.586Z,3.17
2022-10-16T15:52:12.750Z,2.03
2022-10-16T15:55:08.516Z,1.70
2022-10-16T15:57:45.198Z,1.83
2022-10-16T16:03:31.932Z,1.65
2022-10-16T16:05:59.759Z,1.60
2022-10-16T16:08:33.549Z,2.03
2022-10-16T16:11:02.528Z,6.18
2022-10-16T16:13:31.214Z,3.60
2022-10-16T16:16:07.090Z,2.30
2022-10-16T16:18:57.424Z,2.13
2022-10-16T16:21:27.040Z,1.88
2022-10-16T16:23:57.558Z,2.40
2022-10-16T16:26:38.608Z,2.05
2022-10-16T16:29:19.797Z,1.92
2022-10-16T16:31:50.910Z,2.47
2022-10-16T16:34:47.921Z,2.50
2022-10-16T16:37:18.225Z,1.77
2022-10-16T16:39:47.108Z,2.27
2022-10-16T16:42:17.058Z,2.40
2022-10-16T16:47:58.268Z,2.63
2022-10-16T16:50:53.234Z,3.25
2022-10-16T16:53:24.090Z,2.90
2022-10-16T16:56:01.065Z,2.45
2022-10-16T16:58:38.194Z,2.75
2022-10-16T17:01:21.858Z,3.08
2022-10-16T17:04:09.026Z,2.47
2022-10-16T17:06:37.010Z,2.47
2022-10-16T17:09:10.047Z,2.35
2022-10-16T17:11:47.094Z,3.30
2022-10-16T17:14:22.266Z,3.05
2022-10-16T17:16:51.324Z,2.70
2022-10-16T17:19:26.347Z,2.67
2022-10-16T17:22:09.496Z,3.20
2022-10-16T17:24:56.138Z,3.20
2022-10-16T17:27:42.786Z,3.20
2022-10-16T17:33:39.113Z,2.65
2022-10-16T17:36:07.524Z,2.55
2022-10-16T17:38:37.690Z,2.70
2022-10-16T17:41:19.092Z,2.83
2022-10-16T17:46:41.412Z,2.85
2022-10-16T17:49:26.001Z,2.35
2022-10-16T17:52:05.472Z,2.50
2022-10-16T17:54:33.466Z,2.60
2022-10-16T17:57:04.419Z,2.55
2022-10-16T17:59:32.474Z,2.33
2022-10-16T18:02:06.505Z,2.67
2022-10-16T18:04:44.540Z,3.03
2022-10-16T18:07:12.536Z,2.63
2022-10-16T18:10:10.913Z,3.45
2022-10-16T18:12:47.681Z,4.68
2022-10-16T18:15:15.872Z,4.05
2022-10-16T18:17:45.608Z,4.28
2022-10-16T18:20:23.580Z,4.90
2022-10-16T18:22:51.260Z,5.30
2022-10-16T18:25:31.334Z,5.63
2022-10-16T18:28:00.449Z,6.88
2022-10-16T18:30:30.699Z,6.30
2022-10-16T18:33:12.971Z,5.38
2022-10-16T18:35:43.854Z,9.40
2022-10-16T18:38:11.799Z,6.30
2022-10-16T18:40:43.006Z,5.53
2022-10-16T18:43:13.491Z,7.70
2022-10-16T18:46:10.451Z,10.37
2022-10-16T18:49:15.624Z,14.00
2022-10-16T18:52:24.012Z,13.15
2022-10-16T18:55:22.603Z,12.75
2022-10-16T18:57:52.680Z,13.45
2022-10-16T19:00:32.098Z,5.07
2022-10-16T19:03:08.537Z,5.25
2022-10-16T19:05:50.403Z,6.38
2022-10-16T19:08:39.893Z,6.90
2022-10-16T19:11:16.703Z,11.60
2022-10-16T19:14:06.639Z,12.48
2022-10-16T19:16:37.259Z,9.43
2022-10-16T19:19:08.893Z,7.28
2022-10-16T19:21:43.145Z,9.77
2022-10-16T19:24:16.657Z,8.15
2022-10-16T19:26:46.715Z,8.88
2022-10-16T19:29:30.077Z,7.07
2022-10-16T19:32:16.641Z,6.57
2022-10-16T19:35:29.210Z,8.85
2022-10-16T19:38:01.403Z,7.72
2022-10-16T19:40:30.007Z,8.55
2022-10-16T19:42:58.090Z,11.52
2022-10-16T19:45:45.311Z,11.13
2022-10-16T19:48:15.952Z,13.10
2022-10-16T19:51:01.282Z,12.63
2022-10-16T19:53:37.554Z,11.13
2022-10-16T19:56:13.355Z,14.60
2022-10-16T19:58:42.161Z,11.73
2022-10-16T20:01:10.110Z,14.20
2022-10-16T20:03:42.768Z,9.73
2022-10-16T20:06:11.363Z,14.77
2022-10-16T20:08:39.982Z,8.65
2022-10-16T20:11:11.515Z,8.25
2022-10-16T20:13:42.603Z,9.98
2022-10-16T20:16:11.126Z,10.07
2022-10-16T20:18:42.328Z,12.98
2022-10-16T20:21:22.576Z,11.38
2022-10-16T20:23:59.312Z,12.13
2022-10-16T20:26:42.264Z,11.25
2022-10-16T20:29:14.026Z,14.18
2022-10-16T20:31:45.182Z,12.95
2022-10-16T20:34:30.374Z,13.90
2022-10-16T20:37:19.965Z,13.82
2022-10-16T20:40:00.213Z,12.32
2022-10-16T20:42:41.569Z,10.45
2022-10-16T20:45:29.917Z,11.15
2022-10-16T20:48:00.675Z,12.25
2022-10-16T20:50:33.508Z,12.63
2022-10-16T20:53:12.505Z,13.95
2022-10-16T20:55:50.271Z,19.45
2022-10-16T20:58:19.313Z,14.20
2022-10-16T21:00:56.609Z,14.73
2022-10-16T21:03:25.476Z,11.50
2022-10-16T21:06:09.063Z,8.80
2022-10-16T21:08:37.948Z,8.88
2022-10-16T21:11:34.232Z,11.35
2022-10-16T21:14:09.563Z,9.98
2022-10-16T21:16:38.892Z,9.07
2022-10-16T21:19:10.158Z,9.70
2022-10-16T21:21:40.173Z,8.93
2022-10-16T21:24:12.308Z,8.70
2022-10-16T21:26:45.704Z,8.45
2022-10-16T21:29:21.630Z,9.70
2022-10-16T21:31:56.810Z,9.63
2022-10-16T21:34:29.977Z,9.43
2022-10-16T21:36:58.828Z,9.55
2022-10-16T21:39:38.957Z,9.43
2022-10-16T21:42:09.090Z,8.77
2022-10-16T21:44:37.432Z,11.73
2022-10-16T21:47:05.252Z,10.63
2022-10-16T21:49:34.212Z,7.85
2022-10-16T21:52:04.324Z,7.57
2022-10-16T21:54:46.673Z,6.90
2022-10-16T21:57:19.650Z,7.90
2022-10-16T21:59:57.834Z,8.10
2022-10-16T22:02:49.618Z,6.78
2022-10-16T22:05:25.711Z,6.25
2022-10-16T22:07:55.059Z,5.72
2022-10-16T22:10:28.036Z,5.63
2022-10-16T22:12:55.702Z,5.70
2022-10-16T22:17:56.530Z,7.53
2022-10-16T22:20:27.564Z,6.80
2022-10-16T22:22:55.328Z,5.55
2022-10-16T22:25:24.132Z,5.55
2022-10-16T22:28:01.064Z,6.13
2022-10-16T22:30:55.732Z,4.38
2022-10-16T22:33:37.156Z,5.53
2022-10-16T22:36:13.710Z,6.25
2022-10-16T22:38:41.880Z,6.97
2022-10-16T22:41:27.237Z,7.57
2022-10-16T22:44:02.353Z,7.32
2022-10-16T22:46:49.500Z,5.35
2022-10-16T22:49:23.750Z,4.22
2022-10-16T22:51:59.956Z,4.13
2022-10-16T22:54:27.816Z,4.55
2022-10-16T22:57:00.712Z,3.92
2022-10-16T22:59:32.048Z,4.60
2022-10-16T23:02:08.065Z,4.82
2022-10-16T23:04:43.215Z,5.45
2022-10-16T23:07:10.970Z,4.68
2022-10-16T23:09:39.180Z,4.68
2022-10-16T23:12:34.126Z,4.97
2022-10-16T23:15:24.739Z,5.45
2022-10-16T23:17:54.437Z,4.95
2022-10-16T23:20:27.584Z,5.55
2022-10-16T23:23:06.071Z,4.25
2022-10-16T23:25:46.383Z,4.70
2022-10-16T23:28:21.232Z,4.28
2022-10-16T23:34:07.393Z,3.75
2022-10-16T23:36:55.367Z,3.10
2022-10-16T23:39:50.074Z,3.10
2022-10-16T23:42:19.706Z,3.83
2022-10-16T23:44:49.812Z,3.30
2022-10-16T23:47:34.928Z,2.83
2022-10-16T23:50:04.744Z,2.95
2022-10-16T23:52:41.044Z,3.15
2022-10-16T23:55:09.233Z,11.73
2022-10-16T23:57:44.329Z,11.25
